HXA4017 ZLXN-ZBHH
Flight info
| Callsign | HXA4017 |
|---|---|
| Flight time | N/A |
| Altitude | 31100 |
| Route | UPV18D UPVOP W111 GOVSU W248 DNC W211 ZWX W219 YHD W217 VIKON W72 OMGEL W64 VALNI VALNI8ZA |
| Aircraft | CRJ9/M-SDFGIRWY/S |
Departure
| Time | 2026-04-17 13:53 |
|---|---|
| Airport | Xining Caojiabao International Airport (ZLXN) |
Arrival
| Time | N/A |
|---|---|
| Airport | Hohhot Baita International Airport (ZBHH) |
| Time | Latitude | Longitude | Altitude | Speed | Heading |
|---|---|---|---|---|---|
| 2026-04-17 13:24 | 36.52645 | 102.03730 | 7124 ft | 0 kts | 199° |
| 2026-04-17 13:36 | 36.52651 | 102.03732 | 7123 ft | 2 kts | 194° |
| 2026-04-17 13:37 | 36.52667 | 102.03736 | 7123 ft | 2 kts | 185° |
| 2026-04-17 13:37 | 36.52683 | 102.03734 | 7122 ft | 2 kts | 157° |
| 2026-04-17 13:37 | 36.52695 | 102.03720 | 7121 ft | 2 kts | 119° |
| 2026-04-17 13:37 | 36.52699 | 102.03709 | 7121 ft | 1 kts | 109° |
| 2026-04-17 13:38 | 36.52700 | 102.03708 | 7121 ft | 0 kts | 108° |
| 2026-04-17 13:43 | 36.52699 | 102.03710 | 7121 ft | 1 kts | 109° |
| 2026-04-17 13:43 | 36.52697 | 102.03718 | 7118 ft | 1 kts | 110° |
| 2026-04-17 13:43 | 36.52692 | 102.03732 | 7119 ft | 2 kts | 112° |
| 2026-04-17 13:44 | 36.52686 | 102.03752 | 7123 ft | 3 kts | 107° |
| 2026-04-17 13:44 | 36.52680 | 102.03780 | 7128 ft | 4 kts | 107° |
| 2026-04-17 13:44 | 36.52672 | 102.03814 | 7128 ft | 5 kts | 107° |
| 2026-04-17 13:44 | 36.52661 | 102.03856 | 7122 ft | 5 kts | 107° |
| 2026-04-17 13:45 | 36.52654 | 102.03904 | 7127 ft | 6 kts | 79° |
| 2026-04-17 13:45 | 36.52679 | 102.03934 | 7128 ft | 5 kts | 28° |
| 2026-04-17 13:45 | 36.52715 | 102.03953 | 7126 ft | 6 kts | 19° |
| 2026-04-17 13:45 | 36.52758 | 102.03971 | 7126 ft | 7 kts | 18° |
| 2026-04-17 13:46 | 36.52807 | 102.03992 | 7127 ft | 8 kts | 26° |
| 2026-04-17 13:46 | 36.52827 | 102.04049 | 7126 ft | 8 kts | 85° |
| 2026-04-17 13:46 | 36.52818 | 102.04117 | 7123 ft | 8 kts | 108° |
| 2026-04-17 13:46 | 36.52798 | 102.04186 | 7127 ft | 9 kts | 109° |
| 2026-04-17 13:47 | 36.52779 | 102.04255 | 7128 ft | 9 kts | 109° |
| 2026-04-17 13:47 | 36.52759 | 102.04327 | 7124 ft | 9 kts | 109° |
| 2026-04-17 13:47 | 36.52736 | 102.04407 | 7128 ft | 11 kts | 109° |
| 2026-04-17 13:47 | 36.52711 | 102.04499 | 7128 ft | 12 kts | 109° |
| 2026-04-17 13:48 | 36.52684 | 102.04597 | 7128 ft | 12 kts | 109° |
| 2026-04-17 13:48 | 36.52656 | 102.04698 | 7129 ft | 12 kts | 109° |
| 2026-04-17 13:48 | 36.52627 | 102.04803 | 7129 ft | 13 kts | 109° |
| 2026-04-17 13:48 | 36.52596 | 102.04909 | 7124 ft | 13 kts | 110° |
| 2026-04-17 13:49 | 36.52567 | 102.05012 | 7131 ft | 12 kts | 109° |
| 2026-04-17 13:49 | 36.52539 | 102.05114 | 7127 ft | 13 kts | 109° |
| 2026-04-17 13:49 | 36.52508 | 102.05225 | 7133 ft | 14 kts | 109° |
| 2026-04-17 13:49 | 36.52475 | 102.05345 | 7124 ft | 15 kts | 109° |
| 2026-04-17 13:50 | 36.52439 | 102.05472 | 7129 ft | 16 kts | 109° |
| 2026-04-17 13:50 | 36.52400 | 102.05611 | 7125 ft | 18 kts | 109° |
| 2026-04-17 13:50 | 36.52359 | 102.05763 | 7125 ft | 16 kts | 107° |
| 2026-04-17 13:50 | 36.52353 | 102.05855 | 7128 ft | 11 kts | 72° |
| 2026-04-17 13:51 | 36.52388 | 102.05896 | 7129 ft | 9 kts | 20° |
| 2026-04-17 13:51 | 36.52459 | 102.05924 | 7130 ft | 8 kts | 8° |
| 2026-04-17 13:51 | 36.52491 | 102.05908 | 7131 ft | 7 kts | 304° |
| 2026-04-17 13:51 | 36.52497 | 102.05890 | 7127 ft | 0 kts | 289° |
| 2026-04-17 13:52 | 36.52501 | 102.05873 | 7128 ft | 14 kts | 289° |
| 2026-04-17 13:52 | 36.52612 | 102.05476 | 7132 ft | 83 kts | 289° |
| 2026-04-17 13:52 | 36.52872 | 102.04545 | 7129 ft | 143 kts | 289° |
| 2026-04-17 13:53 | 36.53244 | 102.03179 | 7169 ft | 185 kts | 287° |
| 2026-04-17 13:53 | 36.53643 | 102.01647 | 7861 ft | 185 kts | 287° |
| 2026-04-17 13:53 | 36.54020 | 102.00122 | 8619 ft | 187 kts | 286° |
| 2026-04-17 13:53 | 36.54362 | 101.98537 | 9141 ft | 192 kts | 282° |
| 2026-04-17 13:54 | 36.54821 | 101.95263 | 10327 ft | 189 kts | 274° |
| 2026-04-17 13:54 | 36.54888 | 101.93675 | 10931 ft | 185 kts | 269° |
| 2026-04-17 13:55 | 36.54263 | 101.90442 | 11216 ft | 233 kts | 224° |
| 2026-04-17 13:55 | 36.52687 | 101.89587 | 11380 ft | 265 kts | 184° |
| 2026-04-17 13:55 | 36.49568 | 101.91903 | 12754 ft | 289 kts | 117° |
| 2026-04-17 13:56 | 36.48377 | 101.96986 | 13661 ft | 323 kts | 107° |
| 2026-04-17 13:56 | 36.47387 | 101.99544 | 14093 ft | 335 kts | 129° |
| 2026-04-17 13:56 | 36.45748 | 102.01602 | 14820 ft | 336 kts | 143° |
| 2026-04-17 13:57 | 36.43824 | 102.03258 | 15578 ft | 337 kts | 152° |
| 2026-04-17 13:57 | 36.41735 | 102.04605 | 16320 ft | 340 kts | 157° |
| 2026-04-17 13:57 | 36.37302 | 102.07070 | 17255 ft | 366 kts | 158° |
| 2026-04-17 13:58 | 36.34935 | 102.08449 | 17491 ft | 386 kts | 152° |
| 2026-04-17 13:58 | 36.31679 | 102.13851 | 18404 ft | 408 kts | 107° |
| 2026-04-17 13:58 | 36.30781 | 102.17201 | 18972 ft | 412 kts | 108° |
| 2026-04-17 13:59 | 36.29557 | 102.24112 | 20053 ft | 415 kts | 82° |
| 2026-04-17 13:59 | 36.30340 | 102.27515 | 20582 ft | 409 kts | 59° |
| 2026-04-17 13:59 | 36.32051 | 102.30267 | 21099 ft | 402 kts | 37° |
| 2026-04-17 14:00 | 36.34179 | 102.32537 | 21619 ft | 405 kts | 37° |
| 2026-04-17 14:00 | 36.36216 | 102.34981 | 22163 ft | 411 kts | 43° |
| 2026-04-17 14:00 | 36.37965 | 102.37825 | 22670 ft | 420 kts | 54° |
| 2026-04-17 14:00 | 36.39291 | 102.41091 | 23217 ft | 427 kts | 64° |
| 2026-04-17 14:01 | 36.40286 | 102.44590 | 23694 ft | 432 kts | 68° |
| 2026-04-17 14:01 | 36.41193 | 102.48160 | 24109 ft | 434 kts | 68° |
| 2026-04-17 14:01 | 36.42111 | 102.51737 | 24540 ft | 436 kts | 68° |
| 2026-04-17 14:01 | 36.43059 | 102.55315 | 24960 ft | 437 kts | 67° |
| 2026-04-17 14:02 | 36.44069 | 102.58884 | 25358 ft | 439 kts | 66° |
| 2026-04-17 14:02 | 36.44999 | 102.62519 | 25726 ft | 446 kts | 75° |
| 2026-04-17 14:02 | 36.45254 | 102.66376 | 26155 ft | 452 kts | 86° |
| 2026-04-17 14:02 | 36.45136 | 102.70317 | 26454 ft | 458 kts | 93° |
| 2026-04-17 14:03 | 36.44676 | 102.74250 | 26819 ft | 463 kts | 97° |
| 2026-04-17 14:03 | 36.44077 | 102.78190 | 27173 ft | 465 kts | 98° |
| 2026-04-17 14:03 | 36.43486 | 102.82151 | 27440 ft | 468 kts | 97° |
| 2026-04-17 14:03 | 36.42954 | 102.86138 | 27761 ft | 469 kts | 96° |
| 2026-04-17 14:04 | 36.42422 | 102.90147 | 28090 ft | 471 kts | 96° |
| 2026-04-17 14:04 | 36.41849 | 102.94158 | 28407 ft | 474 kts | 97° |
| 2026-04-17 14:04 | 36.41241 | 102.98188 | 28704 ft | 476 kts | 97° |
| 2026-04-17 14:04 | 36.40629 | 103.02234 | 28995 ft | 478 kts | 97° |
| 2026-04-17 14:05 | 36.40023 | 103.06249 | 29297 ft | 479 kts | 97° |
| 2026-04-17 14:05 | 36.39403 | 103.10378 | 29587 ft | 481 kts | 97° |
| 2026-04-17 14:05 | 36.38794 | 103.14416 | 29866 ft | 483 kts | 97° |
| 2026-04-17 14:05 | 36.38161 | 103.18574 | 30133 ft | 485 kts | 97° |
| 2026-04-17 14:06 | 36.37540 | 103.22641 | 30364 ft | 486 kts | 97° |
| 2026-04-17 14:06 | 36.36910 | 103.26762 | 30570 ft | 488 kts | 97° |
| 2026-04-17 14:06 | 36.36275 | 103.30906 | 30801 ft | 488 kts | 97° |
| 2026-04-17 14:06 | 36.35643 | 103.35022 | 30939 ft | 484 kts | 96° |
| 2026-04-17 14:07 | 36.35404 | 103.39136 | 30978 ft | 473 kts | 81° |
| 2026-04-17 14:07 | 36.36063 | 103.43052 | 31033 ft | 459 kts | 64° |
| 2026-04-17 14:07 | 36.37392 | 103.46617 | 31072 ft | 452 kts | 56° |
| 2026-04-17 14:08 | 36.40718 | 103.53153 | 31074 ft | 441 kts | 42° |
| 2026-04-17 14:08 | 36.42987 | 103.55631 | 31086 ft | 430 kts | 28° |
| 2026-04-17 14:08 | 36.45580 | 103.57408 | 31092 ft | 424 kts | 19° |
| 2026-04-17 14:09 | 36.50986 | 103.60272 | 31078 ft | 421 kts | 19° |
| 2026-04-17 14:09 | 36.53483 | 103.62223 | 31069 ft | 429 kts | 34° |
| 2026-04-17 14:09 | 36.55707 | 103.64695 | 31074 ft | 429 kts | 37° |
| 2026-04-17 14:10 | 36.59672 | 103.70253 | 31072 ft | 431 kts | 46° |
| 2026-04-17 14:10 | 36.63304 | 103.76141 | 31068 ft | 426 kts | 46° |
| 2026-04-17 14:11 | 36.67005 | 103.81861 | 31067 ft | 422 kts | 45° |
| 2026-04-17 14:11 | 36.70688 | 103.87530 | 31071 ft | 419 kts | 45° |
| 2026-04-17 14:12 | 36.74354 | 103.93178 | 31069 ft | 419 kts | 45° |
| 2026-04-17 14:12 | 36.78014 | 103.98833 | 31066 ft | 418 kts | 45° |
| 2026-04-17 14:13 | 36.83467 | 104.07271 | 31045 ft | 419 kts | 45° |
| 2026-04-17 14:13 | 36.87224 | 104.12819 | 31042 ft | 418 kts | 42° |
| 2026-04-17 14:14 | 36.91121 | 104.18221 | 31032 ft | 420 kts | 42° |
| 2026-04-17 14:14 | 36.95003 | 104.23696 | 31034 ft | 422 kts | 43° |
| 2026-04-17 14:15 | 36.98902 | 104.29187 | 31021 ft | 423 kts | 43° |
| 2026-04-17 14:15 | 37.02806 | 104.34712 | 31032 ft | 424 kts | 43° |
| 2026-04-17 14:16 | 37.06727 | 104.40266 | 31027 ft | 426 kts | 43° |
| 2026-04-17 14:16 | 37.10666 | 104.45850 | 31021 ft | 428 kts | 43° |
| 2026-04-17 14:17 | 37.14612 | 104.51454 | 31015 ft | 430 kts | 43° |
| 2026-04-17 14:17 | 37.18571 | 104.57081 | 31008 ft | 431 kts | 43° |
| 2026-04-17 14:18 | 37.22532 | 104.62735 | 30995 ft | 432 kts | 43° |
| 2026-04-17 14:18 | 37.26497 | 104.68413 | 30991 ft | 433 kts | 44° |
| 2026-04-17 14:19 | 37.30461 | 104.74110 | 30987 ft | 433 kts | 44° |
| 2026-04-17 14:19 | 37.34445 | 104.79797 | 30986 ft | 434 kts | 43° |
| 2026-04-17 14:20 | 37.38438 | 104.85490 | 30991 ft | 434 kts | 43° |
| 2026-04-17 14:20 | 37.42440 | 104.91202 | 30974 ft | 435 kts | 44° |
| 2026-04-17 14:21 | 37.46416 | 104.96892 | 30968 ft | 436 kts | 44° |
| 2026-04-17 14:21 | 37.50419 | 105.02629 | 30960 ft | 436 kts | 44° |
| 2026-04-17 14:22 | 37.54423 | 105.08374 | 30954 ft | 436 kts | 44° |
| 2026-04-17 14:22 | 37.58402 | 105.14162 | 30953 ft | 438 kts | 46° |
| 2026-04-17 14:23 | 37.62137 | 105.20253 | 30948 ft | 439 kts | 48° |
| 2026-04-17 14:23 | 37.65822 | 105.26417 | 30943 ft | 440 kts | 48° |
| 2026-04-17 14:24 | 37.69527 | 105.32567 | 30951 ft | 440 kts | 48° |
| 2026-04-17 14:24 | 37.73246 | 105.38703 | 30941 ft | 440 kts | 48° |
| 2026-04-17 14:25 | 37.76945 | 105.44808 | 30936 ft | 441 kts | 48° |
| 2026-04-17 14:25 | 37.80665 | 105.50961 | 30941 ft | 441 kts | 48° |
| 2026-04-17 14:26 | 37.84399 | 105.57122 | 30935 ft | 440 kts | 48° |
| 2026-04-17 14:26 | 37.88110 | 105.63245 | 30932 ft | 437 kts | 48° |
| 2026-04-17 14:27 | 37.91803 | 105.69351 | 30930 ft | 435 kts | 49° |
| 2026-04-17 14:27 | 37.95476 | 105.75432 | 30924 ft | 433 kts | 49° |
| 2026-04-17 14:28 | 37.99129 | 105.81498 | 30922 ft | 433 kts | 49° |
| 2026-04-17 14:28 | 38.02784 | 105.87574 | 30919 ft | 434 kts | 49° |
| 2026-04-17 14:29 | 38.06434 | 105.93653 | 30918 ft | 434 kts | 49° |
| 2026-04-17 14:29 | 38.10093 | 105.99760 | 30918 ft | 435 kts | 49° |
| 2026-04-17 14:30 | 38.13754 | 106.05881 | 30917 ft | 435 kts | 49° |
| 2026-04-17 14:30 | 38.17417 | 106.12015 | 30920 ft | 436 kts | 49° |
| 2026-04-17 14:31 | 38.21056 | 106.18124 | 30922 ft | 437 kts | 49° |
| 2026-04-17 14:31 | 38.24727 | 106.24296 | 30928 ft | 437 kts | 49° |
| 2026-04-17 14:32 | 38.28393 | 106.30470 | 30924 ft | 438 kts | 49° |